Latest Weather Observations for Derby

IDW60801

Issued at 11:32 am WST Tuesday 1 September 2015 (issued every 30 minutes, with the page automatically refreshed every 10 minutes)

About weather observations | Map of weather stations | Latest weather observations for WA | Other Formats
Station Details ID: 003032 Name: DERBY AERO Lat: -17.37 Lon: 123.66 Height: 6.2 m
Data from the previous 72 hours. | See also: Recent months at Derby
Date/Time
WST
Temp
°C
App
Temp
°C
Dew
Point
Rel
Hum
%
Delta-T
°C
Wind Press
QNH
hPa
Press
MSL
hPa
Rain
since 9 am
mm
Dir
 
Spd
km/h
Gust
km/h
Spd
kts
Gust
kts
01/11:30am 29.7 28.4 11.2 31 10.6 WNW 9 17 5 9 1013.8 1013.8 0.0
01/11:00am 29.8 28.0 10.9 31 10.8 WSW 11 19 6 10 1014.4 1014.4 0.0
01/10:30am 29.2 26.5 11.7 34 10.1 WSW 17 26 9 14 1014.9 1014.9 0.0
01/10:00am 27.6 26.7 14.9 45 7.7 S 13 20 7 11 1015.3 1015.3 0.0
01/09:30am 27.0 25.5 16.3 52 6.6 SSW 19 24 10 13 1015.5 1015.5 0.0
01/09:00am 25.9 25.2 16.5 56 5.8 SW 15 22 8 12 1015.6 1015.6 0.0
01/08:30am 24.0 24.2 18.6 72 3.4 SW 15 22 8 12 1015.7 1015.7 0.0
01/08:00am 22.7 24.0 18.5 77 2.6 SW 9 15 5 8 1015.8 1015.8 0.0
01/07:30am 21.6 23.9 17.6 78 2.5 ENE 2 6 1 3 1015.7 1015.7 0.0
01/07:00am 19.9 21.0 16.7 82 1.9 NE 6 7 3 4 1015.4 1015.4 0.0
01/06:30am 18.1 18.8 16.1 88 1.2 NE 7 7 4 4 1015.0 1015.0 0.0
01/06:00am 16.8 18.5 15.2 90 0.9 CALM 0 2 0 1 1014.6 1014.6 0.0
01/05:30am 16.7 17.7 15.4 92 0.8 NNE 4 9 2 5 1014.3 1014.3 0.0
01/05:00am 16.7 18.2 14.7 88 1.1 CALM 0 0 0 0 1013.8 1013.8 0.0
01/04:30am 17.7 18.8 15.5 87 1.3 S 4 6 2 3 1013.4 1013.4 0.0
01/04:00am 17.9 17.9 15.2 84 1.6 S 9 9 5 5 1013.4 1013.4 0.0
01/03:30am 18.1 18.2 15.4 84 1.6 SSW 9 11 5 6 1013.4 1013.4 0.0
01/03:00am 17.0 16.3 13.1 78 2.2 S 9 9 5 5 1013.3 1013.3 0.0
01/02:30am 17.3 17.0 13.2 77 2.3 SSW 7 9 4 5 1013.3 1013.3 0.0
01/02:00am 17.1 17.9 12.6 75 2.5 CALM 0 0 0 0 1013.5 1013.5 0.0
01/01:30am 17.9 18.6 12.1 69 3.2 CALM 0 0 0 0 1013.7 1013.7 0.0
01/01:00am 18.5 19.3 12.7 69 3.2 CALM 0 0 0 0 1014.1 1014.1 0.0
01/12:30am 18.8 19.6 12.5 67 3.5 CALM 0 0 0 0 1014.3 1014.3 0.0
01/12:00am 19.3 19.6 12.3 64 3.9 WNW 2 6 1 3 1014.8 1014.8 0.0
 
Date/Time
WST
Temp
°C
App
Temp
°C
Dew
Point
Rel
Hum
%
Delta-T
°C
Wind Press
QNH
hPa
Press
MSL
hPa
Rain
since 9 am
mm
Dir
 
Spd
km/h
Gust
km/h
Spd
kts
Gust
kts
31/11:30pm 20.3 20.2 13.3 64 4.0 W 6 6 3 3 1015.1 1015.1 0.0
31/11:00pm 20.3 19.7 12.3 60 4.5 WSW 7 9 4 5 1015.2 1015.2 0.0
31/10:30pm 20.9 18.4 12.3 58 4.8 WSW 17 19 9 10 1015.2 1015.2 0.0
31/10:00pm 21.9 19.9 12.7 56 5.2 WSW 15 17 8 9 1015.2 1015.2 0.0
31/09:30pm 22.5 20.0 12.4 52 5.7 WSW 17 20 9 11 1015.2 1015.2 0.0
31/09:00pm 22.4 20.2 12.1 52 5.8 WSW 15 17 8 9 1015.3 1015.3 0.0
31/08:30pm 24.0 21.5 12.3 48 6.7 W 17 19 9 10 1015.0 1015.0 0.0
31/08:00pm 25.1 23.5 13.9 49 6.6 WSW 15 19 8 10 1014.6 1014.6 0.0
31/07:30pm 26.1 24.2 14.2 48 7.1 W 17 24 9 13 1014.3 1014.3 0.0
31/07:00pm 26.9 25.0 15.3 49 7.0 WNW 19 22 10 12 1013.7 1013.7 0.0
31/06:30pm 26.9 25.5 17.1 55 6.1 NW 20 24 11 13 1013.2 1013.2 0.0
31/06:00pm 27.5 25.8 17.1 53 6.5 NNW 22 30 12 16 1012.9 1012.9 0.0
31/05:30pm 28.4 26.9 16.3 47 7.5 N 19 24 10 13 1012.6 1012.6 0.0
31/05:00pm 29.6 26.5 15.7 43 8.6 N 26 33 14 18 1012.3 1012.3 0.0
31/04:30pm 30.2 26.3 14.3 38 9.6 N 28 33 15 18 1012.2 1012.2 0.0
31/04:00pm 30.8 27.6 16.4 42 9.0 NNW 28 35 15 19 1012.1 1012.1 0.0
31/03:30pm 30.8 27.5 16.0 40 9.2 NNW 28 33 15 18 1012.0 1012.0 0.0
31/03:00pm 31.4 28.8 15.8 39 9.7 NNW 24 30 13 16 1012.1 1012.1 0.0
31/02:30pm 31.6 28.9 15.5 37 10.0 NNW 24 30 13 16 1012.4 1012.4 0.0
31/02:00pm 31.5 29.5 15.5 38 9.9 NW 20 32 11 17 1012.7 1012.7 0.0
31/01:30pm 31.1 29.2 15.1 38 9.8 NW 19 28 10 15 1013.1 1013.1 0.0
31/01:00pm 32.0 30.6 15.5 37 10.2 NW 17 22 9 12 1013.4 1013.4 0.0
31/12:30pm 32.0 30.6 15.5 37 10.2 WNW 17 24 9 13 1013.8 1013.8 0.0
31/12:00pm 30.5 30.4 16.1 41 9.0 WNW 11 20 6 11 1014.3 1014.3 0.0
31/11:30am 30.1 29.4 15.4 41 9.0 WNW 13 24 7 13 1014.7 1014.7 0.0
31/11:00am 30.1 29.2 15.8 42 8.8 W 15 24 8 13 1015.3 1015.3 0.0
31/10:30am 28.4 28.7 16.0 47 7.7 WSW 9 17 5 9 1015.9 1015.9 0.0
31/10:00am 28.7 29.3 17.6 51 7.0 WSW 11 17 6 9 1016.4 1016.4 0.0
31/09:30am 26.8 27.1 17.8 57 5.7 WSW 13 20 7 11 1016.6 1016.6 0.0
31/09:00am 25.3 25.5 18.5 66 4.3 WSW 15 20 8 11 1016.6 1016.6 0.0
31/08:30am 24.9 24.5 18.8 69 3.9 SW 19 24 10 13 1016.4 1016.4 0.0
31/08:00am 24.2 24.8 18.6 71 3.5 WSW 13 17 7 9 1016.3 1016.3 0.0
31/07:30am 23.1 24.7 18.2 74 3.1 SW 7 9 4 5 1016.1 1016.1 0.0
31/07:00am 22.0 24.9 18.2 79 2.4 CALM 0 0 0 0 1015.9 1015.9 0.0
31/06:30am 20.9 23.3 16.9 78 2.4 CALM 0 0 0 0 1015.7 1015.7 0.0
31/06:00am 19.4 21.6 16.4 83 1.8 CALM 0 0 0 0 1015.3 1015.3 0.0
31/05:30am 19.3 19.9 16.7 85 1.6 W 9 9 5 5 1015.1 1015.1 0.0
31/05:00am 19.9 20.9 16.9 83 1.8 W 7 9 4 5 1014.9 1014.9 0.0
31/04:30am 19.9 22.3 17.1 84 1.7 CALM 0 0 0 0 1014.9 1014.9 0.0
31/04:00am 20.3 22.1 17.3 83 1.8 WNW 4 6 2 3 1014.9 1014.9 0.0
31/03:30am 20.1 21.0 16.7 81 2.1 WNW 7 7 4 4 1014.8 1014.8 0.0
31/03:00am 20.4 21.1 17.0 81 2.1 W 9 11 5 6 1014.9 1014.9 0.0
31/02:30am 20.5 21.1 16.9 80 2.2 W 9 11 5 6 1015.1 1015.1 0.0
31/02:00am 20.3 21.0 16.1 77 2.5 W 7 11 4 6 1015.2 1015.2 0.0
31/01:30am 20.5 21.2 15.7 74 2.9 W 6 7 3 4 1015.2 1015.2 0.0
31/01:00am 21.4 22.3 16.1 72 3.2 WSW 6 7 3 4 1015.4 1015.4 0.0
31/12:30am 21.7 23.5 15.5 68 3.7 CALM 0 6 0 3 1015.7 1015.7 0.0
31/12:00am 22.2 22.8 15.8 67 3.8 SW 7 9 4 5 1015.8 1015.8 0.0
 
Date/Time
WST
Temp
°C
App
Temp
°C
Dew
Point
Rel
Hum
%
Delta-T
°C
Wind Press
QNH
hPa
Press
MSL
hPa
Rain
since 9 am
mm
Dir
 
Spd
km/h
Gust
km/h
Spd
kts
Gust
kts
30/11:30pm 22.9 22.3 15.7 64 4.3 WSW 13 15 7 8 1016.0 1016.0 0.0
30/11:00pm 23.3 22.4 15.9 63 4.5 WSW 15 17 8 9 1016.1 1016.1 0.0
30/10:30pm 23.8 22.3 16.3 63 4.6 WSW 19 24 10 13 1016.2 1016.2 0.0
30/10:00pm 24.1 23.6 16.9 64 4.4 SW 15 19 8 10 1016.4 1016.4 0.0
30/09:30pm 24.7 23.4 16.9 62 4.8 SW 19 22 10 12 1016.3 1016.3 0.0
30/09:00pm 25.4 24.2 17.1 60 5.1 SW 19 20 10 11 1016.3 1016.3 0.0
30/08:30pm 26.0 27.2 19.9 69 4.0 WSW 13 17 7 9 1016.1 1016.1 0.0
30/08:00pm 25.7 27.4 20.9 75 3.2 WNW 13 17 7 9 1015.9 1015.9 0.0
30/07:30pm 26.2 26.9 20.5 71 3.7 NW 17 22 9 12 1015.5 1015.5 0.0
30/07:00pm 26.3 26.5 20.6 71 3.7 NW 20 28 11 15 1015.1 1015.1 0.0
30/06:30pm 26.3 25.3 20.4 70 3.9 NW 26 32 14 17 1014.8 1014.8 0.0
30/06:00pm 27.2 26.4 19.3 62 5.1 NNW 22 28 12 15 1014.1 1014.1 0.0
30/05:30pm 28.1 26.9 18.5 56 6.1 NNW 22 26 12 14 1013.8 1013.8 0.0
30/05:00pm 29.8 28.2 16.6 45 8.3 NNW 20 24 11 13 1013.7 1013.7 0.0
30/04:30pm 30.7 29.7 16.7 43 8.8 NNW 17 24 9 13 1013.3 1013.3 0.0
30/04:00pm 31.0 30.5 17.0 43 8.9 N 15 20 8 11 1013.1 1013.1 0.0
30/03:30pm 32.7 31.8 16.9 38 10.0 NNW 17 28 9 15 1013.1 1013.1 0.0
30/03:00pm 32.6 31.7 16.8 38 10.0 NNW 17 22 9 12 1013.2 1013.2 0.0
30/02:30pm 32.3 32.1 16.6 39 9.9 WNW 13 24 7 13 1013.6 1013.6 0.0
30/02:00pm 31.8 31.0 16.1 38 9.8 WNW 15 22 8 12 1014.0 1014.0 0.0
30/01:30pm 32.7 32.1 15.7 36 10.6 WNW 13 20 7 11 1014.2 1014.2 0.0
30/01:00pm 31.5 29.9 15.0 36 10.1 WNW 17 26 9 14 1014.6 1014.6 0.0
30/12:30pm 31.7 31.2 16.0 38 9.8 WSW 13 26 7 14 1015.0 1015.0 0.0
30/12:00pm 31.3 30.7 15.7 39 9.7 SW 13 22 7 12 1015.6 1015.6 0.0
30/11:30am 30.4 29.7 15.3 40 9.3 WSW 13 19 7 10 1016.3 1016.3 0.0
30/11:00am 29.7 29.3 16.1 43 8.4 WSW 13 20 7 11 1016.9 1016.9 0.0
30/10:30am 28.1 27.3 16.1 48 7.4 SW 15 22 8 12 1017.5 1017.5 0.0
30/10:00am 27.5 26.7 16.1 49 7.0 SSW 15 20 8 11 1018.0 1018.0 0.0
30/09:30am 26.4 25.1 15.8 52 6.5 SSW 17 24 9 13 1018.3 1018.3 0.0
30/09:00am 25.4 24.9 16.0 56 5.7 SSW 13 20 7 11 1018.3 1018.3 0.0
30/08:30am 24.9 24.7 16.6 60 5.1 S 13 19 7 10 1018.0 1018.0 0.0
30/08:00am 23.6 23.7 16.4 64 4.4 S 11 17 6 9 1017.7 1017.7 0.0
30/07:30am 23.0 24.2 16.8 68 3.8 SSE 6 9 3 5 1017.5 1017.5 0.0
30/07:00am 22.0 23.9 17.6 76 2.7 ENE 4 7 2 4 1017.1 1017.1 0.0
30/06:30am 19.8 22.1 16.8 83 1.8 CALM 0 0 0 0 1016.7 1016.7 0.0
30/06:00am 20.0 21.3 17.2 84 1.7 SSW 6 7 3 4 1016.1 1016.1 0.0
30/05:30am 19.6 20.5 16.6 83 1.8 W 7 7 4 4 1015.7 1015.7 0.0
30/05:00am 20.1 21.4 17.1 83 1.8 SW 6 7 3 4 1015.4 1015.4 0.0
30/04:30am 20.5 22.0 17.7 84 1.7 S 6 7 3 4 1015.0 1015.0 0.0
30/04:00am 20.8 22.2 17.8 83 1.9 SSW 7 9 4 5 1014.7 1014.7 0.0
30/03:30am 20.9 22.3 17.7 82 2.0 S 7 9 4 5 1014.6 1014.6 0.0
30/03:00am 21.1 22.6 17.7 81 2.1 SSW 6 7 3 4 1014.6 1014.6 0.0
30/02:30am 21.3 22.3 17.7 80 2.2 SSW 9 11 5 6 1014.4 1014.4 0.0
30/02:00am 21.2 22.0 17.2 78 2.4 SW 9 11 5 6 1014.5 1014.5 0.0
30/01:30am 21.1 22.2 16.7 76 2.7 WSW 6 9 3 5 1014.7 1014.7 0.0
30/01:00am 21.3 21.5 16.7 75 2.8 WSW 11 13 6 7 1014.7 1014.7 0.0
30/12:30am 21.8 22.4 16.7 73 3.1 WSW 9 11 5 6 1014.9 1014.9 0.0
30/12:00am 22.6 22.5 16.9 70 3.5 SW 13 17 7 9 1015.0 1015.0 0.0
 
Date/Time
WST
Temp
°C
App
Temp
°C
Dew
Point
Rel
Hum
%
Delta-T
°C
Wind Press
QNH
hPa
Press
MSL
hPa
Rain
since 9 am
mm
Dir
 
Spd
km/h
Gust
km/h
Spd
kts
Gust
kts
29/11:30pm 23.1 22.2 16.9 68 3.8 SW 17 20 9 11 1015.0 1015.0 0.0
29/11:00pm 23.5 23.3 16.8 66 4.1 SW 13 17 7 9 1015.2 1015.2 0.0
29/10:30pm 23.6 24.0 17.3 67 3.9 SW 11 13 6 7 1015.3 1015.3 0.0
29/10:00pm 24.3 25.4 18.0 68 3.9 SW 9 11 5 6 1015.5 1015.5 0.0
29/09:30pm 24.9 26.3 19.5 72 3.5 WSW 11 13 6 7 1015.4 1015.4 0.0
29/09:00pm 25.5 27.0 20.5 74 3.3 WNW 13 17 7 9 1015.3 1015.3 0.0
29/08:30pm 25.4 26.6 21.5 79 2.6 WNW 17 20 9 11 1015.2 1015.2 0.0
29/08:00pm 25.7 26.3 21.1 76 3.0 NW 19 24 10 13 1014.9 1014.9 0.0
29/07:30pm 26.0 25.7 20.3 71 3.7 NW 22 28 12 15 1014.6 1014.6 0.0
29/07:00pm 26.4 25.7 19.5 66 4.5 NNW 22 28 12 15 1014.1 1014.1 0.0
29/06:30pm 27.4 25.8 18.4 58 5.7 NW 24 32 13 17 1013.7 1013.7 0.0
29/06:00pm 28.5 27.3 17.1 50 7.2 NNW 19 26 10 14 1013.4 1013.4 0.0
29/05:30pm 29.8 28.6 16.2 43 8.5 NNW 17 22 9 12 1013.1 1013.1 0.0
29/05:00pm 30.7 29.4 15.9 40 9.2 NNW 17 20 9 11 1012.9 1012.9 0.0
29/04:30pm 31.4 30.2 16.2 40 9.5 NNW 17 22 9 12 1012.7 1012.7 0.0
29/04:00pm 31.0 29.1 15.8 40 9.4 NNW 20 24 11 13 1012.6 1012.6 0.0
29/03:30pm 31.7 29.9 15.6 37 10.0 NNW 19 26 10 14 1012.6 1012.6 0.0
29/03:00pm 32.3 30.4 15.3 35 10.5 NW 19 24 10 13 1012.7 1012.7 0.0
29/02:30pm 32.3 30.7 14.9 35 10.7 NW 17 24 9 13 1013.0 1013.0 0.0
29/02:00pm 31.8 30.7 15.3 37 10.2 WNW 15 22 8 12 1013.5 1013.5 0.0
29/01:30pm 31.4 30.5 15.8 39 9.7 WNW 15 22 8 12 1013.9 1013.9 0.0
29/01:00pm 31.6 30.8 16.0 39 9.7 NW 15 24 8 13 1014.4 1014.4 0.0
29/12:30pm 31.1 30.7 16.3 41 9.3 NW 13 20 7 11 1014.9 1014.9 0.0
29/12:00pm 30.2 30.5 16.9 44 8.4 W 11 17 6 9 1015.5 1015.5 0.0

Other Formats:

Comma delimited format used in spreadsheet applications
http://www.bom.gov.au/fwo/IDW60801/IDW60801.95205.axf

JavaScript Object Notation format (JSON) in row-major order
http://www.bom.gov.au/fwo/IDW60801/IDW60801.95205.json